sensor_id;sensor_type;location;lat;lon;timestamp;P1;durP1;ratioP1;P2;durP2;ratioP2
1991;SDS011;997;48.448;8.924;2022-09-06T03:02:13;6.20;;;5.80;;
1991;SDS011;997;48.448;8.924;2022-09-06T03:04:38;5.63;;;5.23;;
1991;SDS011;997;48.448;8.924;2022-09-06T03:07:04;7.10;;;5.10;;
1991;SDS011;997;48.448;8.924;2022-09-06T03:09:30;6.00;;;5.50;;
1991;SDS011;997;48.448;8.924;2022-09-06T03:11:55;7.23;;;6.50;;
1991;SDS011;997;48.448;8.924;2022-09-06T03:14:21;7.73;;;7.00;;
1991;SDS011;997;48.448;8.924;2022-09-06T03:16:47;6.40;;;5.80;;
1991;SDS011;997;48.448;8.924;2022-09-06T03:19:12;8.10;;;7.30;;
1991;SDS011;997;48.448;8.924;2022-09-06T03:21:38;7.87;;;6.40;;
1991;SDS011;997;48.448;8.924;2022-09-06T03:24:04;6.57;;;6.00;;
1991;SDS011;997;48.448;8.924;2022-09-06T03:26:29;6.13;;;5.60;;
1991;SDS011;997;48.448;8.924;2022-09-06T03:28:55;6.70;;;5.83;;
1991;SDS011;997;48.448;8.924;2022-09-06T03:31:21;6.30;;;5.80;;
1991;SDS011;997;48.448;8.924;2022-09-06T03:33:46;6.10;;;5.70;;
1991;SDS011;997;48.448;8.924;2022-09-06T03:36:12;7.57;;;5.57;;
1991;SDS011;997;48.448;8.924;2022-09-06T03:38:38;5.80;;;5.30;;
1991;SDS011;997;48.448;8.924;2022-09-06T03:41:04;5.83;;;5.37;;
1991;SDS011;997;48.448;8.924;2022-09-06T03:43:30;5.70;;;5.20;;
1991;SDS011;997;48.448;8.924;2022-09-06T03:45:56;5.80;;;5.10;;
1991;SDS011;997;48.448;8.924;2022-09-06T03:48:22;8.30;;;5.70;;
1991;SDS011;997;48.448;8.924;2022-09-06T03:50:51;6.20;;;4.93;;
1991;SDS011;997;48.448;8.924;2022-09-06T03:53:18;4.83;;;4.53;;
1991;SDS011;997;48.448;8.924;2022-09-06T03:55:45;6.03;;;5.43;;
1991;SDS011;997;48.448;8.924;2022-09-06T03:58:12;5.13;;;4.73;;
1991;SDS011;997;48.448;8.924;2022-09-06T04:00:39;5.97;;;5.47;;
1991;SDS011;997;48.448;8.924;2022-09-06T04:03:05;5.60;;;5.20;;
1991;SDS011;997;48.448;8.924;2022-09-06T04:05:31;4.50;;;4.20;;
1991;SDS011;997;48.448;8.924;2022-09-06T04:07:56;5.47;;;5.10;;
1991;SDS011;997;48.448;8.924;2022-09-06T04:10:22;5.10;;;4.73;;
1991;SDS011;997;48.448;8.924;2022-09-06T04:12:47;7.47;;;4.37;;
1991;SDS011;997;48.448;8.924;2022-09-06T04:15:13;5.60;;;5.10;;
1991;SDS011;997;48.448;8.924;2022-09-06T04:17:42;5.50;;;5.10;;
1991;SDS011;997;48.448;8.924;2022-09-06T04:20:10;6.30;;;5.40;;
1991;SDS011;997;48.448;8.924;2022-09-06T04:22:39;5.10;;;4.70;;
1991;SDS011;997;48.448;8.924;2022-09-06T04:25:05;5.90;;;5.50;;
1991;SDS011;997;48.448;8.924;2022-09-06T04:27:31;6.13;;;5.63;;
1991;SDS011;997;48.448;8.924;2022-09-06T04:29:57;6.73;;;5.80;;
1991;SDS011;997;48.448;8.924;2022-09-06T04:32:23;7.67;;;5.93;;
1991;SDS011;997;48.448;8.924;2022-09-06T04:34:48;6.73;;;5.43;;
1991;SDS011;997;48.448;8.924;2022-09-06T04:37:14;6.00;;;5.50;;
1991;SDS011;997;48.448;8.924;2022-09-06T04:39:44;5.30;;;4.90;;
1991;SDS011;997;48.448;8.924;2022-09-06T04:42:10;4.97;;;4.63;;
1991;SDS011;997;48.448;8.924;2022-09-06T04:44:35;5.20;;;4.80;;
1991;SDS011;997;48.448;8.924;2022-09-06T04:47:34;5.70;;;5.30;;
1991;SDS011;997;48.448;8.924;2022-09-06T04:49:53;5.50;;;5.10;;
1991;SDS011;997;48.448;8.924;2022-09-06T04:52:19;5.80;;;5.40;;
1991;SDS011;997;48.448;8.924;2022-09-06T04:54:44;5.70;;;5.10;;
1991;SDS011;997;48.448;8.924;2022-09-06T04:57:10;6.50;;;5.70;;
1991;SDS011;997;48.448;8.924;2022-09-06T04:59:35;6.10;;;5.40;;
1991;SDS011;997;48.448;8.924;2022-09-06T05:02:01;5.43;;;4.93;;
1991;SDS011;997;48.448;8.924;2022-09-06T05:04:27;5.03;;;4.63;;
1991;SDS011;997;48.448;8.924;2022-09-06T05:07:00;6.33;;;5.73;;
1991;SDS011;997;48.448;8.924;2022-09-06T05:09:30;6.30;;;5.90;;
1991;SDS011;997;48.448;8.924;2022-09-06T05:11:56;5.47;;;5.00;;
1991;SDS011;997;48.448;8.924;2022-09-06T05:14:22;6.43;;;5.93;;
1991;SDS011;997;48.448;8.924;2022-09-06T05:16:48;6.43;;;5.93;;
1991;SDS011;997;48.448;8.924;2022-09-06T05:19:17;6.00;;;5.50;;
1991;SDS011;997;48.448;8.924;2022-09-06T05:21:43;5.40;;;5.00;;
1991;SDS011;997;48.448;8.924;2022-09-06T05:24:09;6.00;;;5.60;;
1991;SDS011;997;48.448;8.924;2022-09-06T05:26:34;5.77;;;5.37;;
1991;SDS011;997;48.448;8.924;2022-09-06T05:29:00;6.20;;;5.70;;
1991;SDS011;997;48.448;8.924;2022-09-06T05:31:27;7.20;;;5.90;;
1991;SDS011;997;48.448;8.924;2022-09-06T05:33:56;6.23;;;5.63;;
1991;SDS011;997;48.448;8.924;2022-09-06T05:36:23;5.70;;;5.20;;
1991;SDS011;997;48.448;8.924;2022-09-06T05:38:50;6.07;;;5.40;;
1991;SDS011;997;48.448;8.924;2022-09-06T05:41:17;5.30;;;4.90;;
1991;SDS011;997;48.448;8.924;2022-09-06T05:43:43;7.37;;;5.77;;
1991;SDS011;997;48.448;8.924;2022-09-06T05:46:09;6.20;;;5.33;;
1991;SDS011;997;48.448;8.924;2022-09-06T05:48:35;6.60;;;6.10;;
1991;SDS011;997;48.448;8.924;2022-09-06T05:51:02;5.60;;;5.20;;
1991;SDS011;997;48.448;8.924;2022-09-06T05:53:43;6.40;;;6.00;;
1991;SDS011;997;48.448;8.924;2022-09-06T05:56:10;5.97;;;5.57;;
1991;SDS011;997;48.448;8.924;2022-09-06T05:58:36;9.33;;;6.40;;
1991;SDS011;997;48.448;8.924;2022-09-06T06:01:07;5.23;;;4.90;;
1991;SDS011;997;48.448;8.924;2022-09-06T06:03:53;6.87;;;5.37;;
1991;SDS011;997;48.448;8.924;2022-09-06T06:06:21;5.10;;;4.60;;
1991;SDS011;997;48.448;8.924;2022-09-06T06:08:47;5.83;;;5.40;;
1991;SDS011;997;48.448;8.924;2022-09-06T06:11:14;5.53;;;5.13;;
1991;SDS011;997;48.448;8.924;2022-09-06T06:13:40;5.53;;;5.23;;
1991;SDS011;997;48.448;8.924;2022-09-06T06:16:16;6.83;;;6.13;;
1991;SDS011;997;48.448;8.924;2022-09-06T06:18:44;5.73;;;5.33;;
1991;SDS011;997;48.448;8.924;2022-09-06T06:21:14;5.80;;;4.80;;
1991;SDS011;997;48.448;8.924;2022-09-06T06:23:41;6.43;;;5.93;;
1991;SDS011;997;48.448;8.924;2022-09-06T06:26:09;7.50;;;5.53;;
1991;SDS011;997;48.448;8.924;2022-09-06T06:28:35;6.20;;;5.53;;
1991;SDS011;997;48.448;8.924;2022-09-06T06:31:02;5.43;;;4.77;;
1991;SDS011;997;48.448;8.924;2022-09-06T06:33:29;5.80;;;5.33;;
1991;SDS011;997;48.448;8.924;2022-09-06T06:35:58;5.97;;;5.43;;
1991;SDS011;997;48.448;8.924;2022-09-06T06:38:38;6.50;;;5.90;;
1991;SDS011;997;48.448;8.924;2022-09-06T06:41:07;6.90;;;6.40;;
1991;SDS011;997;48.448;8.924;2022-09-06T06:43:34;7.80;;;5.77;;
1991;SDS011;997;48.448;8.924;2022-09-06T06:46:04;6.33;;;5.73;;
1991;SDS011;997;48.448;8.924;2022-09-06T06:48:35;7.17;;;5.90;;
1991;SDS011;997;48.448;8.924;2022-09-06T06:51:03;14.17;;;6.90;;
1991;SDS011;997;48.448;8.924;2022-09-06T06:53:29;8.37;;;5.70;;
1991;SDS011;997;48.448;8.924;2022-09-06T06:55:55;6.37;;;5.40;;
1991;SDS011;997;48.448;8.924;2022-09-06T06:58:20;12.77;;;6.70;;
1991;SDS011;997;48.448;8.924;2022-09-06T07:00:46;6.20;;;5.20;;
1991;SDS011;997;48.448;8.924;2022-09-06T07:03:12;6.50;;;5.87;;
1991;SDS011;997;48.448;8.924;2022-09-06T07:05:38;6.30;;;5.80;;
1991;SDS011;997;48.448;8.924;2022-09-06T07:08:05;7.10;;;6.13;;
1991;SDS011;997;48.448;8.924;2022-09-06T07:10:31;6.17;;;5.67;;
1991;SDS011;997;48.448;8.924;2022-09-06T07:12:57;6.70;;;5.57;;
1991;SDS011;997;48.448;8.924;2022-09-06T07:15:23;5.57;;;5.10;;
1991;SDS011;997;48.448;8.924;2022-09-06T07:17:49;6.17;;;5.60;;
1991;SDS011;997;48.448;8.924;2022-09-06T07:20:17;5.37;;;4.87;;
1991;SDS011;997;48.448;8.924;2022-09-06T07:22:44;5.67;;;5.23;;
1991;SDS011;997;48.448;8.924;2022-09-06T07:25:10;8.27;;;5.57;;
1991;SDS011;997;48.448;8.924;2022-09-06T07:27:37;5.33;;;4.83;;
1991;SDS011;997;48.448;8.924;2022-09-06T07:30:02;5.00;;;4.60;;
1991;SDS011;997;48.448;8.924;2022-09-06T07:32:28;8.63;;;7.03;;
1991;SDS011;997;48.448;8.924;2022-09-06T07:34:55;8.63;;;5.00;;
1991;SDS011;997;48.448;8.924;2022-09-06T07:37:21;5.73;;;5.30;;
1991;SDS011;997;48.448;8.924;2022-09-06T07:39:46;5.73;;;5.20;;
1991;SDS011;997;48.448;8.924;2022-09-06T07:42:12;7.43;;;6.23;;
1991;SDS011;997;48.448;8.924;2022-09-06T07:44:37;6.07;;;5.57;;
1991;SDS011;997;48.448;8.924;2022-09-06T07:47:03;7.40;;;5.60;;
1991;SDS011;997;48.448;8.924;2022-09-06T07:49:32;7.40;;;4.90;;
1991;SDS011;997;48.448;8.924;2022-09-06T07:51:58;5.90;;;5.30;;
1991;SDS011;997;48.448;8.924;2022-09-06T07:54:24;13.10;;;6.63;;
1991;SDS011;997;48.448;8.924;2022-09-06T07:56:49;5.77;;;5.37;;
1991;SDS011;997;48.448;8.924;2022-09-06T07:59:15;7.30;;;4.97;;
1991;SDS011;997;48.448;8.924;2022-09-06T08:01:42;6.40;;;5.80;;
1991;SDS011;997;48.448;8.924;2022-09-06T08:04:12;4.83;;;4.43;;
1991;SDS011;997;48.448;8.924;2022-09-06T08:06:39;5.30;;;4.80;;
1991;SDS011;997;48.448;8.924;2022-09-06T08:09:07;5.70;;;4.60;;
1991;SDS011;997;48.448;8.924;2022-09-06T08:11:34;6.60;;;4.60;;
1991;SDS011;997;48.448;8.924;2022-09-06T08:14:01;6.97;;;5.10;;
1991;SDS011;997;48.448;8.924;2022-09-06T08:16:29;6.50;;;4.70;;
1991;SDS011;997;48.448;8.924;2022-09-06T08:18:57;4.97;;;4.57;;
1991;SDS011;997;48.448;8.924;2022-09-06T08:21:25;5.33;;;4.83;;
1991;SDS011;997;48.448;8.924;2022-09-06T08:23:54;4.97;;;4.50;;
1991;SDS011;997;48.448;8.924;2022-09-06T08:26:21;4.70;;;4.30;;
1991;SDS011;997;48.448;8.924;2022-09-06T08:28:52;6.17;;;4.70;;
1991;SDS011;997;48.448;8.924;2022-09-06T08:31:19;6.23;;;4.37;;
1991;SDS011;997;48.448;8.924;2022-09-06T08:33:45;4.60;;;3.50;;
1991;SDS011;997;48.448;8.924;2022-09-06T08:36:12;5.93;;;4.30;;
1991;SDS011;997;48.448;8.924;2022-09-06T08:38:38;4.83;;;4.07;;
1991;SDS011;997;48.448;8.924;2022-09-06T08:44:08;5.27;;;4.43;;
1991;SDS011;997;48.448;8.924;2022-09-06T08:46:41;10.27;;;4.00;;
1991;SDS011;997;48.448;8.924;2022-09-06T08:49:34;5.67;;;4.83;;
1991;SDS011;997;48.448;8.924;2022-09-06T08:52:10;6.77;;;5.00;;
1991;SDS011;997;48.448;8.924;2022-09-06T09:00:18;4.30;;;3.90;;
1991;SDS011;997;48.448;8.924;2022-09-06T09:02:46;4.57;;;4.17;;
1991;SDS011;997;48.448;8.924;2022-09-06T09:05:18;6.83;;;5.20;;
1991;SDS011;997;48.448;8.924;2022-09-06T09:12:55;8.43;;;4.57;;
1991;SDS011;997;48.448;8.924;2022-09-06T09:15:24;8.60;;;4.37;;
1991;SDS011;997;48.448;8.924;2022-09-06T09:17:50;8.37;;;4.97;;
1991;SDS011;997;48.448;8.924;2022-09-06T09:20:17;4.43;;;3.93;;
1991;SDS011;997;48.448;8.924;2022-09-06T09:22:43;8.67;;;3.90;;
1991;SDS011;997;48.448;8.924;2022-09-06T09:25:11;6.80;;;4.40;;
1991;SDS011;997;48.448;8.924;2022-09-06T09:27:43;6.00;;;4.40;;
1991;SDS011;997;48.448;8.924;2022-09-06T09:30:10;6.10;;;4.17;;
1991;SDS011;997;48.448;8.924;2022-09-06T09:32:37;5.20;;;4.73;;
1991;SDS011;997;48.448;8.924;2022-09-06T09:38:01;7.73;;;4.77;;
1991;SDS011;997;48.448;8.924;2022-09-06T09:40:32;5.00;;;3.23;;
1991;SDS011;997;48.448;8.924;2022-09-06T09:45:44;7.90;;;4.43;;
1991;SDS011;997;48.448;8.924;2022-09-06T09:48:24;7.13;;;4.10;;
1991;SDS011;997;48.448;8.924;2022-09-06T09:50:51;8.20;;;4.17;;
1991;SDS011;997;48.448;8.924;2022-09-06T09:53:18;13.50;;;4.10;;
1991;SDS011;997;48.448;8.924;2022-09-06T09:55:46;7.53;;;3.87;;
1991;SDS011;997;48.448;8.924;2022-09-06T09:58:20;14.17;;;4.50;;
1991;SDS011;997;48.448;8.924;2022-09-06T10:03:44;5.50;;;3.97;;
1991;SDS011;997;48.448;8.924;2022-09-06T10:06:11;7.63;;;4.40;;
1991;SDS011;997;48.448;8.924;2022-09-06T10:08:38;6.17;;;4.10;;
1991;SDS011;997;48.448;8.924;2022-09-06T10:11:11;4.27;;;3.83;;
1991;SDS011;997;48.448;8.924;2022-09-06T10:13:38;4.23;;;3.80;;
1991;SDS011;997;48.448;8.924;2022-09-06T10:16:06;4.07;;;3.60;;
1991;SDS011;997;48.448;8.924;2022-09-06T10:18:37;11.83;;;4.57;;
1991;SDS011;997;48.448;8.924;2022-09-06T10:21:14;5.77;;;3.33;;
1991;SDS011;997;48.448;8.924;2022-09-06T10:29:13;8.80;;;3.90;;
1991;SDS011;997;48.448;8.924;2022-09-06T10:31:50;6.10;;;3.67;;
1991;SDS011;997;48.448;8.924;2022-09-06T10:37:07;7.63;;;4.03;;
1991;SDS011;997;48.448;8.924;2022-09-06T10:39:55;4.83;;;4.27;;
1991;SDS011;997;48.448;8.924;2022-09-06T10:58:36;4.73;;;3.17;;
1991;SDS011;997;48.448;8.924;2022-09-06T11:01:11;5.57;;;3.60;;
1991;SDS011;997;48.448;8.924;2022-09-06T11:03:58;7.90;;;4.00;;
1991;SDS011;997;48.448;8.924;2022-09-06T11:06:27;5.20;;;3.90;;
1991;SDS011;997;48.448;8.924;2022-09-06T11:11:32;5.30;;;3.93;;
1991;SDS011;997;48.448;8.924;2022-09-06T11:14:14;5.90;;;3.90;;
1991;SDS011;997;48.448;8.924;2022-09-06T11:16:47;10.83;;;4.43;;
1991;SDS011;997;48.448;8.924;2022-09-06T11:19:22;9.90;;;4.50;;
1991;SDS011;997;48.448;8.924;2022-09-06T11:29:45;8.30;;;4.20;;
1991;SDS011;997;48.448;8.924;2022-09-06T11:34:55;6.50;;;3.40;;
1991;SDS011;997;48.448;8.924;2022-09-06T11:37:28;6.37;;;4.00;;
1991;SDS011;997;48.448;8.924;2022-09-06T11:40:05;5.00;;;4.17;;
1991;SDS011;997;48.448;8.924;2022-09-06T11:45:41;7.90;;;4.33;;
1991;SDS011;997;48.448;8.924;2022-09-06T11:53:33;4.83;;;3.80;;
1991;SDS011;997;48.448;8.924;2022-09-06T11:56:24;7.30;;;4.40;;
1991;SDS011;997;48.448;8.924;2022-09-06T11:58:58;9.90;;;4.07;;
1991;SDS011;997;48.448;8.924;2022-09-06T12:06:31;10.57;;;4.20;;
1991;SDS011;997;48.448;8.924;2022-09-06T12:08:59;3.70;;;2.90;;
1991;SDS011;997;48.448;8.924;2022-09-06T12:13:59;3.30;;;2.90;;
1991;SDS011;997;48.448;8.924;2022-09-06T12:19:52;9.13;;;3.53;;
1991;SDS011;997;48.448;8.924;2022-09-06T12:27:32;5.57;;;3.50;;
1991;SDS011;997;48.448;8.924;2022-09-06T12:32:39;6.70;;;3.20;;
1991;SDS011;997;48.448;8.924;2022-09-06T12:35:14;3.43;;;3.13;;
1991;SDS011;997;48.448;8.924;2022-09-06T12:37:54;4.97;;;2.70;;
1991;SDS011;997;48.448;8.924;2022-09-06T12:40:21;3.73;;;2.80;;
1991;SDS011;997;48.448;8.924;2022-09-06T12:42:48;4.70;;;3.07;;
1991;SDS011;997;48.448;8.924;2022-09-06T12:45:15;3.90;;;3.50;;
1991;SDS011;997;48.448;8.924;2022-09-06T12:47:45;6.87;;;3.33;;
1991;SDS011;997;48.448;8.924;2022-09-06T12:50:22;3.83;;;2.60;;
1991;SDS011;997;48.448;8.924;2022-09-06T12:57:49;4.20;;;2.70;;
1991;SDS011;997;48.448;8.924;2022-09-06T13:00:17;3.67;;;2.73;;
1991;SDS011;997;48.448;8.924;2022-09-06T13:03:06;6.60;;;2.60;;
1991;SDS011;997;48.448;8.924;2022-09-06T13:05:30;2.87;;;2.37;;
1991;SDS011;997;48.448;8.924;2022-09-06T13:07:58;5.10;;;3.30;;
1991;SDS011;997;48.448;8.924;2022-09-06T13:10:26;7.67;;;2.30;;
1991;SDS011;997;48.448;8.924;2022-09-06T13:12:53;4.77;;;2.47;;
1991;SDS011;997;48.448;8.924;2022-09-06T13:15:22;2.57;;;1.83;;
1991;SDS011;997;48.448;8.924;2022-09-06T13:17:52;9.07;;;2.60;;
1991;SDS011;997;48.448;8.924;2022-09-06T13:20:38;2.93;;;2.60;;
1991;SDS011;997;48.448;8.924;2022-09-06T13:23:05;2.60;;;1.70;;
1991;SDS011;997;48.448;8.924;2022-09-06T13:25:46;2.47;;;1.73;;
1991;SDS011;997;48.448;8.924;2022-09-06T13:28:27;5.17;;;2.10;;
1991;SDS011;997;48.448;8.924;2022-09-06T13:31:08;1.70;;;1.47;;
1991;SDS011;997;48.448;8.924;2022-09-06T13:33:38;2.13;;;1.63;;
1991;SDS011;997;48.448;8.924;2022-09-06T13:38:44;3.30;;;1.70;;
1991;SDS011;997;48.448;8.924;2022-09-06T13:43:57;2.50;;;1.10;;
1991;SDS011;997;48.448;8.924;2022-09-06T13:46:32;1.93;;;1.50;;
1991;SDS011;997;48.448;8.924;2022-09-06T13:49:00;1.50;;;1.40;;
1991;SDS011;997;48.448;8.924;2022-09-06T13:51:25;2.10;;;1.90;;
1991;SDS011;997;48.448;8.924;2022-09-06T13:54:07;1.97;;;1.80;;
1991;SDS011;997;48.448;8.924;2022-09-06T13:56:35;3.40;;;1.50;;
1991;SDS011;997;48.448;8.924;2022-09-06T13:59:01;2.63;;;2.43;;
1991;SDS011;997;48.448;8.924;2022-09-06T14:01:28;3.10;;;1.93;;
1991;SDS011;997;48.448;8.924;2022-09-06T14:03:53;3.43;;;2.00;;
1991;SDS011;997;48.448;8.924;2022-09-06T14:06:19;5.37;;;2.60;;
1991;SDS011;997;48.448;8.924;2022-09-06T14:08:45;4.67;;;2.77;;
1991;SDS011;997;48.448;8.924;2022-09-06T14:11:11;2.40;;;2.20;;
1991;SDS011;997;48.448;8.924;2022-09-06T14:13:38;3.40;;;2.20;;
1991;SDS011;997;48.448;8.924;2022-09-06T14:16:04;2.20;;;2.00;;
1991;SDS011;997;48.448;8.924;2022-09-06T14:18:30;4.63;;;2.23;;
1991;SDS011;997;48.448;8.924;2022-09-06T14:20:56;4.40;;;2.10;;
1991;SDS011;997;48.448;8.924;2022-09-06T14:23:23;5.20;;;2.73;;
1991;SDS011;997;48.448;8.924;2022-09-06T14:25:56;4.40;;;2.20;;
1991;SDS011;997;48.448;8.924;2022-09-06T14:28:23;2.80;;;2.40;;
1991;SDS011;997;48.448;8.924;2022-09-06T14:30:49;5.43;;;2.23;;
1991;SDS011;997;48.448;8.924;2022-09-06T14:33:16;3.07;;;2.77;;
1991;SDS011;997;48.448;8.924;2022-09-06T14:35:42;8.20;;;2.87;;
1991;SDS011;997;48.448;8.924;2022-09-06T14:38:08;9.13;;;2.77;;
1991;SDS011;997;48.448;8.924;2022-09-06T14:40:35;3.73;;;2.20;;
1991;SDS011;997;48.448;8.924;2022-09-06T14:43:02;2.90;;;2.07;;
1991;SDS011;997;48.448;8.924;2022-09-06T14:45:28;3.43;;;2.40;;
1991;SDS011;997;48.448;8.924;2022-09-06T14:47:56;5.00;;;2.27;;
1991;SDS011;997;48.448;8.924;2022-09-06T14:50:22;2.63;;;2.03;;
1991;SDS011;997;48.448;8.924;2022-09-06T14:52:48;3.43;;;2.17;;
1991;SDS011;997;48.448;8.924;2022-09-06T14:55:13;2.47;;;1.70;;
1991;SDS011;997;48.448;8.924;2022-09-06T14:57:39;3.83;;;2.30;;
1991;SDS011;997;48.448;8.924;2022-09-06T15:00:05;4.87;;;1.90;;
1991;SDS011;997;48.448;8.924;2022-09-06T15:02:34;1.93;;;1.80;;
1991;SDS011;997;48.448;8.924;2022-09-06T15:05:00;2.50;;;2.20;;
1991;SDS011;997;48.448;8.924;2022-09-06T15:07:27;4.90;;;2.60;;
1991;SDS011;997;48.448;8.924;2022-09-06T15:09:52;5.93;;;2.53;;
1991;SDS011;997;48.448;8.924;2022-09-06T15:12:18;3.03;;;2.03;;
1991;SDS011;997;48.448;8.924;2022-09-06T15:14:44;4.60;;;2.77;;
1991;SDS011;997;48.448;8.924;2022-09-06T15:17:10;3.80;;;2.43;;
1991;SDS011;997;48.448;8.924;2022-09-06T15:19:37;2.40;;;1.70;;
1991;SDS011;997;48.448;8.924;2022-09-06T15:22:03;2.90;;;2.20;;
1991;SDS011;997;48.448;8.924;2022-09-06T15:24:30;3.73;;;3.33;;
1991;SDS011;997;48.448;8.924;2022-09-06T15:26:56;3.40;;;2.47;;
1991;SDS011;997;48.448;8.924;2022-09-06T15:29:23;3.63;;;2.37;;
1991;SDS011;997;48.448;8.924;2022-09-06T15:31:49;3.53;;;2.33;;
1991;SDS011;997;48.448;8.924;2022-09-06T15:34:15;4.47;;;2.37;;
1991;SDS011;997;48.448;8.924;2022-09-06T15:36:42;3.93;;;1.90;;
1991;SDS011;997;48.448;8.924;2022-09-06T15:39:08;5.20;;;2.10;;
1991;SDS011;997;48.448;8.924;2022-09-06T15:41:34;2.90;;;1.67;;
1991;SDS011;997;48.448;8.924;2022-09-06T15:44:10;3.40;;;2.00;;
1991;SDS011;997;48.448;8.924;2022-09-06T15:49:23;2.67;;;2.40;;
1991;SDS011;997;48.448;8.924;2022-09-06T15:51:50;4.53;;;2.40;;
1991;SDS011;997;48.448;8.924;2022-09-06T15:54:17;2.53;;;2.10;;
1991;SDS011;997;48.448;8.924;2022-09-06T15:57:04;2.20;;;2.00;;
1991;SDS011;997;48.448;8.924;2022-09-06T15:59:30;3.50;;;2.27;;
1991;SDS011;997;48.448;8.924;2022-09-06T16:01:56;2.93;;;2.00;;
1991;SDS011;997;48.448;8.924;2022-09-06T16:04:22;2.80;;;1.70;;
1991;SDS011;997;48.448;8.924;2022-09-06T16:06:48;2.07;;;1.87;;
1991;SDS011;997;48.448;8.924;2022-09-06T16:09:14;2.33;;;1.50;;
1991;SDS011;997;48.448;8.924;2022-09-06T16:11:41;2.60;;;2.03;;
1991;SDS011;997;48.448;8.924;2022-09-06T16:14:08;3.23;;;2.30;;
1991;SDS011;997;48.448;8.924;2022-09-06T16:16:36;1.80;;;1.70;;
1991;SDS011;997;48.448;8.924;2022-09-06T16:19:03;3.80;;;2.30;;
1991;SDS011;997;48.448;8.924;2022-09-06T16:21:29;2.63;;;1.63;;
1991;SDS011;997;48.448;8.924;2022-09-06T16:23:58;3.30;;;2.07;;
1991;SDS011;997;48.448;8.924;2022-09-06T16:26:26;5.43;;;1.90;;
1991;SDS011;997;48.448;8.924;2022-09-06T16:28:55;1.87;;;1.70;;
1991;SDS011;997;48.448;8.924;2022-09-06T16:31:21;3.23;;;2.33;;
1991;SDS011;997;48.448;8.924;2022-09-06T16:33:46;2.50;;;1.77;;
1991;SDS011;997;48.448;8.924;2022-09-06T16:36:13;3.63;;;1.93;;
1991;SDS011;997;48.448;8.924;2022-09-06T16:38:39;6.77;;;2.87;;
1991;SDS011;997;48.448;8.924;2022-09-06T16:43:41;4.40;;;2.90;;
1991;SDS011;997;48.448;8.924;2022-09-06T16:46:07;3.00;;;2.00;;
1991;SDS011;997;48.448;8.924;2022-09-06T16:48:34;2.70;;;1.77;;
1991;SDS011;997;48.448;8.924;2022-09-06T16:51:07;11.00;;;2.60;;
1991;SDS011;997;48.448;8.924;2022-09-06T16:53:39;4.17;;;2.23;;
1991;SDS011;997;48.448;8.924;2022-09-06T16:56:06;2.30;;;2.03;;
1991;SDS011;997;48.448;8.924;2022-09-06T16:58:32;2.37;;;1.90;;
1991;SDS011;997;48.448;8.924;2022-09-06T17:00:58;2.30;;;2.10;;
1991;SDS011;997;48.448;8.924;2022-09-06T17:03:24;5.70;;;1.90;;
1991;SDS011;997;48.448;8.924;2022-09-06T17:05:50;3.20;;;1.93;;
1991;SDS011;997;48.448;8.924;2022-09-06T17:08:16;2.13;;;1.80;;
1991;SDS011;997;48.448;8.924;2022-09-06T17:10:42;2.20;;;1.60;;
1991;SDS011;997;48.448;8.924;2022-09-06T17:13:08;6.00;;;2.40;;
1991;SDS011;997;48.448;8.924;2022-09-06T17:15:35;3.53;;;2.10;;
1991;SDS011;997;48.448;8.924;2022-09-06T17:18:19;5.30;;;1.93;;
1991;SDS011;997;48.448;8.924;2022-09-06T17:20:58;3.00;;;1.70;;
1991;SDS011;997;48.448;8.924;2022-09-06T17:23:29;2.57;;;1.70;;
1991;SDS011;997;48.448;8.924;2022-09-06T17:25:56;1.87;;;1.70;;
1991;SDS011;997;48.448;8.924;2022-09-06T17:28:22;5.00;;;1.80;;
1991;SDS011;997;48.448;8.924;2022-09-06T17:30:51;5.53;;;1.87;;
1991;SDS011;997;48.448;8.924;2022-09-06T17:33:17;1.70;;;1.60;;
1991;SDS011;997;48.448;8.924;2022-09-06T17:35:45;2.07;;;1.70;;
1991;SDS011;997;48.448;8.924;2022-09-06T17:38:11;2.43;;;1.80;;
1991;SDS011;997;48.448;8.924;2022-09-06T17:40:37;2.53;;;2.23;;
1991;SDS011;997;48.448;8.924;2022-09-06T17:43:03;4.33;;;2.53;;
1991;SDS011;997;48.448;8.924;2022-09-06T17:45:40;2.13;;;1.63;;
1991;SDS011;997;48.448;8.924;2022-09-06T17:48:06;4.53;;;2.23;;
1991;SDS011;997;48.448;8.924;2022-09-06T17:50:33;3.50;;;1.87;;
1991;SDS011;997;48.448;8.924;2022-09-06T17:52:59;4.53;;;2.10;;
1991;SDS011;997;48.448;8.924;2022-09-06T17:55:25;2.00;;;1.90;;
1991;SDS011;997;48.448;8.924;2022-09-06T17:57:56;3.30;;;2.13;;
1991;SDS011;997;48.448;8.924;2022-09-06T18:00:23;2.37;;;1.83;;
1991;SDS011;997;48.448;8.924;2022-09-06T18:02:50;4.37;;;2.17;;
1991;SDS011;997;48.448;8.924;2022-09-06T18:05:16;2.33;;;1.73;;
1991;SDS011;997;48.448;8.924;2022-09-06T18:07:42;2.50;;;1.50;;
1991;SDS011;997;48.448;8.924;2022-09-06T18:10:09;2.80;;;2.30;;
1991;SDS011;997;48.448;8.924;2022-09-06T18:12:35;2.53;;;1.80;;
1991;SDS011;997;48.448;8.924;2022-09-06T18:15:00;2.47;;;2.10;;
1991;SDS011;997;48.448;8.924;2022-09-06T18:17:26;2.97;;;2.00;;
1991;SDS011;997;48.448;8.924;2022-09-06T18:19:54;2.30;;;2.10;;
1991;SDS011;997;48.448;8.924;2022-09-06T18:22:21;3.73;;;1.90;;
1991;SDS011;997;48.448;8.924;2022-09-06T18:24:47;3.47;;;2.20;;
1991;SDS011;997;48.448;8.924;2022-09-06T18:27:13;2.50;;;2.13;;
1991;SDS011;997;48.448;8.924;2022-09-06T18:29:38;2.43;;;2.23;;
1991;SDS011;997;48.448;8.924;2022-09-06T18:32:04;2.63;;;2.20;;
1991;SDS011;997;48.448;8.924;2022-09-06T18:34:32;5.60;;;2.70;;
1991;SDS011;997;48.448;8.924;2022-09-06T18:36:58;3.50;;;1.93;;
1991;SDS011;997;48.448;8.924;2022-09-06T18:39:24;2.50;;;2.30;;
1991;SDS011;997;48.448;8.924;2022-09-06T18:41:50;4.30;;;1.90;;
1991;SDS011;997;48.448;8.924;2022-09-06T18:44:29;3.17;;;2.47;;
1991;SDS011;997;48.448;8.924;2022-09-06T18:46:56;4.20;;;2.47;;
1991;SDS011;997;48.448;8.924;2022-09-06T18:49:25;4.00;;;2.00;;
1991;SDS011;997;48.448;8.924;2022-09-06T18:51:51;3.13;;;2.23;;
1991;SDS011;997;48.448;8.924;2022-09-06T18:54:17;4.70;;;2.97;;
1991;SDS011;997;48.448;8.924;2022-09-06T18:56:43;2.20;;;2.00;;
1991;SDS011;997;48.448;8.924;2022-09-06T18:59:09;5.47;;;2.27;;
1991;SDS011;997;48.448;8.924;2022-09-06T19:01:35;3.67;;;2.20;;
1991;SDS011;997;48.448;8.924;2022-09-06T19:04:02;4.80;;;3.10;;
1991;SDS011;997;48.448;8.924;2022-09-06T19:06:29;3.20;;;2.50;;
1991;SDS011;997;48.448;8.924;2022-09-06T19:08:57;3.30;;;2.70;;
1991;SDS011;997;48.448;8.924;2022-09-06T19:11:24;3.20;;;2.63;;
1991;SDS011;997;48.448;8.924;2022-09-06T19:13:50;2.80;;;2.60;;
1991;SDS011;997;48.448;8.924;2022-09-06T19:16:17;5.37;;;2.17;;
1991;SDS011;997;48.448;8.924;2022-09-06T19:18:44;3.60;;;2.90;;
1991;SDS011;997;48.448;8.924;2022-09-06T19:23:43;2.27;;;2.07;;
1991;SDS011;997;48.448;8.924;2022-09-06T19:26:12;3.17;;;2.83;;
1991;SDS011;997;48.448;8.924;2022-09-06T19:28:45;2.67;;;2.47;;
1991;SDS011;997;48.448;8.924;2022-09-06T19:31:15;3.40;;;2.50;;
1991;SDS011;997;48.448;8.924;2022-09-06T19:33:42;2.60;;;2.40;;
1991;SDS011;997;48.448;8.924;2022-09-06T19:36:10;3.73;;;2.47;;
1991;SDS011;997;48.448;8.924;2022-09-06T19:38:36;4.17;;;2.50;;
1991;SDS011;997;48.448;8.924;2022-09-06T19:41:03;5.17;;;2.83;;
1991;SDS011;997;48.448;8.924;2022-09-06T19:43:30;3.37;;;2.90;;
1991;SDS011;997;48.448;8.924;2022-09-06T19:45:59;2.50;;;2.30;;
1991;SDS011;997;48.448;8.924;2022-09-06T19:48:27;2.83;;;2.63;;
1991;SDS011;997;48.448;8.924;2022-09-06T19:50:58;4.47;;;3.13;;
1991;SDS011;997;48.448;8.924;2022-09-06T19:53:28;3.87;;;3.57;;
1991;SDS011;997;48.448;8.924;2022-09-06T19:55:55;3.10;;;2.60;;
1991;SDS011;997;48.448;8.924;2022-09-06T19:58:21;5.53;;;2.77;;
1991;SDS011;997;48.448;8.924;2022-09-06T20:00:49;3.60;;;2.67;;
1991;SDS011;997;48.448;8.924;2022-09-06T20:03:18;7.07;;;2.60;;
1991;SDS011;997;48.448;8.924;2022-09-06T20:05:44;3.63;;;2.77;;
1991;SDS011;997;48.448;8.924;2022-09-06T20:08:11;6.50;;;2.63;;
1991;SDS011;997;48.448;8.924;2022-09-06T20:10:37;6.47;;;3.43;;
1991;SDS011;997;48.448;8.924;2022-09-06T20:13:04;2.97;;;2.67;;
1991;SDS011;997;48.448;8.924;2022-09-06T20:15:29;2.73;;;2.53;;
1991;SDS011;997;48.448;8.924;2022-09-06T20:17:57;4.70;;;2.80;;
1991;SDS011;997;48.448;8.924;2022-09-06T20:20:23;3.27;;;2.73;;
1991;SDS011;997;48.448;8.924;2022-09-06T20:22:49;3.87;;;3.33;;